Time;durP1;ratioP1;P1;durP2;ratioP2;P2;SDS_P1;SDS_P2;PMS_P1;PMS_P2;Temp;Humidity;BMP_temperature;BMP_pressure;BME280_temperature;BME280_humidity;BME280_pressure;Samples;Min_cycle;Max_cycle;Signal;HPM_P1;HPM_P2
2022/02/24 00:00:11;;;;;;;7.32;1.10;;;6.30;99.90;;;;;;5059391;28;20301;-74
2022/02/24 00:02:39;;;;;;;5.70;1.33;;;6.40;99.90;;;;;;5059732;28;20029;-74
2022/02/24 00:05:07;;;;;;;3.10;0.90;;;6.50;99.90;;;;;;5059289;28;20102;-74
2022/02/24 00:07:34;;;;;;;4.72;0.73;;;6.50;99.90;;;;;;5059981;28;20028;-73
2022/02/24 00:10:03;;;;;;;5.93;1.42;;;6.60;99.90;;;;;;5059679;28;20021;-74
2022/02/24 00:12:31;;;;;;;4.07;1.55;;;6.70;99.90;;;;;;5059792;28;20124;-74
2022/02/24 00:14:59;;;;;;;9.75;1.05;;;6.70;99.90;;;;;;5059130;28;20025;-74
2022/02/24 00:17:26;;;;;;;3.35;0.98;;;6.70;99.90;;;;;;5058715;28;20478;-73
2022/02/24 00:19:53;;;;;;;12.45;1.75;;;6.70;99.90;;;;;;5060432;28;20036;-73
2022/02/24 00:22:20;;;;;;;4.35;0.88;;;6.70;99.90;;;;;;5060589;28;20025;-73
2022/02/24 00:24:49;;;;;;;3.42;1.20;;;6.70;99.90;;;;;;5080162;28;20024;-73
2022/02/24 00:27:16;;;;;;;5.38;0.80;;;6.70;99.90;;;;;;5062396;28;20028;-73
2022/02/24 00:29:44;;;;;;;10.98;3.47;;;6.70;99.90;;;;;;5079794;28;20028;-74
2022/02/24 00:32:11;;;;;;;3.72;0.95;;;6.80;99.90;;;;;;5061736;28;20107;-74
2022/02/24 00:34:39;;;;;;;4.32;0.82;;;6.80;99.90;;;;;;5078711;28;20016;-74
2022/02/24 00:37:07;;;;;;;8.82;2.15;;;6.70;99.90;;;;;;5078796;28;20332;-73
2022/02/24 00:39:35;;;;;;;4.40;1.17;;;6.80;99.90;;;;;;5078651;28;20017;-73
2022/02/24 00:42:02;;;;;;;3.63;1.20;;;6.70;99.90;;;;;;5060763;28;20066;-73
2022/02/24 00:44:29;;;;;;;3.35;0.93;;;6.80;99.90;;;;;;5078498;28;20017;-73
2022/02/24 00:46:57;;;;;;;6.20;1.45;;;6.70;99.90;;;;;;5079279;28;20032;-73
2022/02/24 00:49:25;;;;;;;4.32;1.10;;;6.70;99.90;;;;;;5078490;28;20025;-74
2022/02/24 00:51:52;;;;;;;8.05;1.45;;;6.70;99.90;;;;;;5078592;28;20024;-74
2022/02/24 00:54:19;;;;;;;4.68;1.42;;;6.60;99.90;;;;;;5079576;28;20103;-74
2022/02/24 00:56:47;;;;;;;4.40;0.90;;;6.60;99.90;;;;;;5079647;28;20017;-74
2022/02/24 00:59:14;;;;;;;6.50;1.40;;;6.50;99.90;;;;;;5079188;28;20051;-74
2022/02/24 01:01:42;;;;;;;3.80;1.67;;;6.50;99.90;;;;;;5079772;28;20021;-73
2022/02/24 01:04:10;;;;;;;4.30;1.10;;;6.50;99.90;;;;;;5079662;28;20020;-74
2022/02/24 01:06:38;;;;;;;7.75;1.27;;;6.50;99.90;;;;;;5079523;28;20387;-73
2022/02/24 01:09:05;;;;;;;5.00;1.10;;;6.40;99.90;;;;;;5079164;28;20036;-74
2022/02/24 01:11:33;;;;;;;5.85;1.60;;;6.40;99.90;;;;;;5078609;28;20073;-74
2022/02/24 01:14:00;;;;;;;5.28;2.13;;;6.40;99.90;;;;;;5078224;28;20024;-73
2022/02/24 01:16:28;;;;;;;4.35;1.10;;;6.40;99.90;;;;;;5078171;28;20404;-74
2022/02/24 01:18:55;;;;;;;8.80;1.45;;;6.40;99.90;;;;;;5060632;28;20017;-74
2022/02/24 01:21:22;;;;;;;8.48;2.08;;;6.40;99.90;;;;;;5060145;28;20024;-73
2022/02/24 01:23:50;;;;;;;4.25;1.27;;;6.40;99.90;;;;;;5077817;28;20056;-74
2022/02/24 01:26:17;;;;;;;7.07;1.20;;;6.40;99.90;;;;;;5077950;28;20024;-73
2022/02/24 01:28:45;;;;;;;4.70;1.50;;;6.40;99.90;;;;;;5077744;28;20021;-74
2022/02/24 01:31:13;;;;;;;9.10;2.05;;;6.40;99.90;;;;;;5079037;28;20021;-74
2022/02/24 01:33:41;;;;;;;10.23;2.25;;;6.40;99.90;;;;;;5078341;28;20020;-73
2022/02/24 01:36:08;;;;;;;3.92;1.23;;;6.30;99.90;;;;;;5060989;28;20485;-73
2022/02/24 01:38:36;;;;;;;2.25;0.90;;;6.30;99.90;;;;;;5078471;28;20032;-74
2022/02/24 01:41:03;;;;;;;5.70;1.23;;;6.30;99.90;;;;;;5079481;28;20331;-73
2022/02/24 01:43:30;;;;;;;8.48;1.85;;;6.30;99.90;;;;;;5078245;28;20392;-73
2022/02/24 01:45:58;;;;;;;6.97;1.30;;;6.30;99.90;;;;;;5078530;28;20056;-73
2022/02/24 01:48:26;;;;;;;7.15;1.67;;;6.30;99.90;;;;;;5077545;28;20112;-74
2022/02/24 01:50:53;;;;;;;8.77;1.80;;;6.20;99.90;;;;;;5077223;28;20078;-73
2022/02/24 01:53:21;;;;;;;11.38;1.70;;;6.20;99.90;;;;;;5077210;28;20023;-73
2022/02/24 01:55:49;;;;;;;6.38;1.50;;;6.20;99.90;;;;;;5077394;28;20035;-74
2022/02/24 01:58:17;;;;;;;6.30;1.20;;;6.20;99.90;;;;;;5077127;28;20021;-74
2022/02/24 02:00:45;;;;;;;5.75;1.35;;;6.20;99.90;;;;;;5077066;28;20055;-73
2022/02/24 02:03:13;;;;;;;5.22;1.45;;;6.20;99.90;;;;;;5059656;28;20020;-74
2022/02/24 02:05:41;;;;;;;3.70;1.10;;;6.30;99.90;;;;;;5077733;28;20480;-73
2022/02/24 02:08:08;;;;;;;4.60;2.20;;;6.20;99.90;;;;;;5077647;28;20031;-73
2022/02/24 02:10:36;;;;;;;2.65;0.90;;;6.30;99.90;;;;;;5078101;28;20392;-73
2022/02/24 02:13:03;;;;;;;10.40;1.55;;;6.30;99.90;;;;;;5077811;28;20024;-73
2022/02/24 02:15:31;;;;;;;8.48;1.65;;;6.30;99.90;;;;;;5060605;28;20024;-74
2022/02/24 02:17:58;;;;;;;5.07;1.00;;;6.30;99.90;;;;;;5060536;28;20017;-73
2022/02/24 02:20:25;;;;;;;7.80;1.65;;;6.30;99.90;;;;;;5078019;28;20392;-73
2022/02/24 02:22:55;;;;;;;6.80;1.73;;;6.20;99.90;;;;;;5077563;28;20048;-74
2022/02/24 02:25:22;;;;;;;7.22;1.65;;;6.30;99.90;;;;;;5077200;28;20021;-73
2022/02/24 02:27:51;;;;;;;4.18;0.98;;;6.20;99.90;;;;;;5076643;28;20021;-74
2022/02/24 02:30:20;;;;;;;6.05;1.20;;;6.30;99.90;;;;;;5076599;28;20095;-74
2022/02/24 02:32:47;;;;;;;5.53;1.40;;;6.20;99.90;;;;;;5076652;28;20379;-74
2022/02/24 02:35:15;;;;;;;4.22;1.77;;;6.20;99.90;;;;;;5077168;28;20028;-74
2022/02/24 02:37:42;;;;;;;5.57;1.33;;;6.20;99.90;;;;;;5076788;28;20021;-73
2022/02/24 02:40:12;;;;;;;7.18;1.65;;;6.30;99.90;;;;;;5058764;28;20052;-73
2022/02/24 02:42:39;;;;;;;6.07;1.75;;;6.20;99.90;;;;;;5076932;28;20464;-73
2022/02/24 02:45:08;;;;;;;10.40;1.90;;;6.30;99.90;;;;;;5077120;28;20095;-74
2022/02/24 02:47:35;;;;;;;12.95;1.75;;;6.30;99.90;;;;;;5059820;28;20119;-73
2022/02/24 02:50:04;;;;;;;9.07;1.60;;;6.30;99.90;;;;;;5077414;28;20020;-73
2022/02/24 02:52:31;;;;;;;2.90;1.20;;;6.30;99.90;;;;;;5077369;28;20070;-73
2022/02/24 02:55:07;;;;;;;4.80;1.25;;;6.30;99.90;;;;;;5077365;28;20366;-74
2022/02/24 02:57:35;;;;;;;6.25;2.35;;;6.30;99.90;;;;;;5077541;28;20080;-74
2022/02/24 03:00:09;;;;;;;4.93;1.17;;;6.30;99.90;;;;;;5077158;28;20032;-73
2022/02/24 03:02:36;;;;;;;9.20;1.35;;;6.20;99.90;;;;;;5076356;28;20069;-74
2022/02/24 03:05:04;;;;;;;3.75;1.02;;;6.20;99.90;;;;;;5058565;28;20435;-74
2022/02/24 03:07:32;;;;;;;2.97;1.40;;;6.10;99.90;;;;;;5076315;28;20420;-74
2022/02/24 03:10:00;;;;;;;7.05;1.73;;;6.10;99.90;;;;;;5076908;28;20032;-73
2022/02/24 03:12:27;;;;;;;5.05;1.30;;;6.10;99.90;;;;;;5076191;28;20032;-73
2022/02/24 03:14:54;;;;;;;5.07;1.15;;;6.20;99.90;;;;;;5059177;28;20017;-73
2022/02/24 03:17:22;;;;;;;3.75;1.10;;;6.20;99.90;;;;;;5058751;28;20020;-74
2022/02/24 03:19:49;;;;;;;5.15;1.23;;;6.20;99.90;;;;;;5078095;28;20407;-74
2022/02/24 03:22:16;;;;;;;12.73;2.03;;;6.20;99.90;;;;;;5059237;28;20033;-73
2022/02/24 03:24:44;;;;;;;6.10;1.20;;;6.30;99.90;;;;;;5077076;28;20044;-74
2022/02/24 03:27:12;;;;;;;3.75;1.08;;;6.30;99.90;;;;;;5077617;28;20024;-74
2022/02/24 03:29:39;;;;;;;5.75;1.42;;;6.30;99.90;;;;;;5077549;28;20087;-74
2022/02/24 03:32:07;;;;;;;5.47;1.35;;;6.40;99.90;;;;;;5077579;28;20025;-74
2022/02/24 03:34:34;;;;;;;4.63;1.33;;;6.40;99.90;;;;;;5076045;28;20112;-74
2022/02/24 03:37:03;;;;;;;5.63;1.63;;;6.40;99.90;;;;;;5075973;28;20032;-74
2022/02/24 03:39:30;;;;;;;5.28;1.35;;;6.50;99.90;;;;;;5075987;28;20024;-74
2022/02/24 03:41:57;;;;;;;4.90;1.40;;;6.50;99.90;;;;;;5076692;28;20317;-73
2022/02/24 03:44:25;;;;;;;4.50;1.38;;;6.50;99.90;;;;;;5075927;28;20479;-73
2022/02/24 03:46:52;;;;;;;5.00;1.35;;;6.50;99.90;;;;;;5075958;28;20017;-73
2022/02/24 03:49:19;;;;;;;3.20;1.40;;;6.50;99.90;;;;;;5058547;28;20025;-73
2022/02/24 03:51:47;;;;;;;5.03;1.90;;;6.50;99.90;;;;;;5076355;28;20028;-74
2022/02/24 03:54:14;;;;;;;6.70;1.38;;;6.50;99.90;;;;;;5076808;28;20020;-73
2022/02/24 03:56:41;;;;;;;6.78;1.58;;;6.50;99.90;;;;;;5079936;28;20070;-73
2022/02/24 03:59:09;;;;;;;4.47;1.60;;;6.60;99.90;;;;;;5080268;28;20418;-74
2022/02/24 04:01:36;;;;;;;3.03;1.00;;;6.60;99.90;;;;;;5062705;28;20025;-74
2022/02/24 04:04:04;;;;;;;6.75;2.08;;;6.60;99.90;;;;;;5080241;28;20032;-74
2022/02/24 04:06:31;;;;;;;5.13;1.63;;;6.60;99.90;;;;;;5063043;28;20024;-74
2022/02/24 04:08:59;;;;;;;3.45;1.20;;;6.70;99.90;;;;;;5080501;28;20310;-73
2022/02/24 04:11:26;;;;;;;6.05;1.33;;;6.70;99.90;;;;;;5062238;28;20017;-74
2022/02/24 04:13:54;;;;;;;5.78;2.00;;;6.70;99.90;;;;;;5079670;28;20021;-74
2022/02/24 04:16:21;;;;;;;10.48;1.80;;;6.70;99.90;;;;;;5079737;28;20073;-73
2022/02/24 04:18:48;;;;;;;3.72;1.35;;;6.70;99.90;;;;;;5079660;28;20396;-74
2022/02/24 04:21:16;;;;;;;6.60;1.48;;;6.70;99.90;;;;;;5079492;28;20324;-74
2022/02/24 04:23:43;;;;;;;5.75;1.45;;;6.80;99.90;;;;;;5078912;28;20052;-74
2022/02/24 04:26:11;;;;;;;5.63;1.10;;;6.80;99.90;;;;;;5079518;28;20100;-74
2022/02/24 04:28:39;;;;;;;9.15;2.67;;;6.80;99.90;;;;;;5079636;28;20298;-73
2022/02/24 04:31:06;;;;;;;2.95;1.70;;;6.80;99.90;;;;;;5061919;28;20025;-73
2022/02/24 04:33:33;;;;;;;8.52;1.60;;;6.80;99.90;;;;;;5079993;28;20031;-73
2022/02/24 04:36:00;;;;;;;7.05;1.23;;;6.80;99.90;;;;;;5079980;28;20017;-74
2022/02/24 04:38:28;;;;;;;8.63;1.60;;;6.90;99.90;;;;;;5079744;28;20352;-73
2022/02/24 04:40:55;;;;;;;8.82;2.05;;;6.90;99.90;;;;;;5062573;28;20021;-74
2022/02/24 04:43:22;;;;;;;6.05;1.15;;;6.90;99.90;;;;;;5080028;28;20048;-74
2022/02/24 04:45:50;;;;;;;4.40;1.50;;;7.00;99.90;;;;;;5078791;28;20025;-74
2022/02/24 04:48:20;;;;;;;5.13;1.35;;;6.90;99.90;;;;;;5078508;28;20332;-74
2022/02/24 04:50:49;;;;;;;4.80;2.03;;;6.90;99.90;;;;;;5078494;28;20028;-73
2022/02/24 04:53:17;;;;;;;7.70;1.42;;;6.90;99.90;;;;;;5078928;28;20086;-74
2022/02/24 04:55:45;;;;;;;6.13;1.85;;;6.90;99.90;;;;;;5044360;28;20432;-74
2022/02/24 04:58:13;;;;;;;4.40;1.80;;;6.90;99.90;;;;;;5044080;28;20055;-74
2022/02/24 05:00:40;;;;;;;8.35;2.72;;;6.90;99.90;;;;;;5078409;28;20028;-73
2022/02/24 05:03:07;;;;;;;6.03;1.52;;;6.90;99.90;;;;;;5078649;28;20028;-73
2022/02/24 05:05:35;;;;;;;5.82;1.55;;;6.90;99.90;;;;;;5079279;28;20081;-73
2022/02/24 05:08:03;;;;;;;9.60;1.60;;;6.90;99.90;;;;;;5078770;28;20028;-74
2022/02/24 05:10:30;;;;;;;6.78;1.55;;;6.80;99.90;;;;;;5079271;28;20020;-74
2022/02/24 05:12:59;;;;;;;8.52;1.88;;;6.80;99.90;;;;;;5079028;28;20035;-73
2022/02/24 05:15:27;;;;;;;8.43;1.67;;;6.70;99.90;;;;;;5079098;28;20412;-73
2022/02/24 05:17:54;;;;;;;9.48;2.05;;;6.70;99.90;;;;;;5078926;28;20031;-74
2022/02/24 05:20:22;;;;;;;5.28;1.33;;;6.60;99.90;;;;;;5078944;28;20017;-74
2022/02/24 05:22:49;;;;;;;3.67;1.20;;;6.60;99.90;;;;;;5077704;28;20047;-74
2022/02/24 05:25:17;;;;;;;6.03;1.33;;;6.50;99.90;;;;;;5077636;28;20025;-73
2022/02/24 05:27:46;;;;;;;5.93;1.45;;;6.50;99.90;;;;;;5078167;28;20024;-74
2022/02/24 05:30:15;;;;;;;4.35;1.50;;;6.50;99.90;;;;;;5077972;28;20103;-74
2022/02/24 05:32:44;;;;;;;6.00;1.60;;;6.50;99.90;;;;;;5078221;28;20465;-74
2022/02/24 05:35:12;;;;;;;5.95;1.52;;;6.50;99.90;;;;;;5077618;28;20021;-73
2022/02/24 05:37:40;;;;;;;10.60;1.70;;;6.60;99.90;;;;;;5078163;28;20023;-74
2022/02/24 05:40:07;;;;;;;4.60;1.30;;;6.60;99.90;;;;;;5078061;28;20027;-73
2022/02/24 05:42:35;;;;;;;6.13;1.33;;;6.60;99.90;;;;;;5078401;28;20082;-74
2022/02/24 05:45:02;;;;;;;8.38;1.50;;;6.60;99.90;;;;;;5078843;28;20016;-73
2022/02/24 05:47:30;;;;;;;6.60;1.42;;;6.60;99.90;;;;;;5060676;28;20073;-74
2022/02/24 05:49:57;;;;;;;6.72;1.48;;;6.60;99.90;;;;;;5078260;28;20025;-73
2022/02/24 05:52:24;;;;;;;7.80;1.65;;;6.70;99.90;;;;;;5078028;28;20027;-74
2022/02/24 05:54:52;;;;;;;11.75;1.63;;;6.70;99.90;;;;;;5077911;28;20021;-74
2022/02/24 05:57:20;;;;;;;12.43;2.35;;;6.70;99.90;;;;;;5077122;28;20021;-74
2022/02/24 05:59:47;;;;;;;8.05;1.65;;;6.70;99.90;;;;;;5077074;28;20021;-74
2022/02/24 06:02:14;;;;;;;7.13;2.83;;;6.70;99.90;;;;;;5077224;28;20024;-74
2022/02/24 06:04:42;;;;;;;9.90;2.72;;;6.70;99.90;;;;;;5059319;28;20347;-74
2022/02/24 06:07:09;;;;;;;7.50;1.85;;;6.70;99.90;;;;;;5059259;28;20044;-74
2022/02/24 06:09:37;;;;;;;7.75;1.83;;;6.80;99.90;;;;;;5076976;28;20031;-74
2022/02/24 06:12:05;;;;;;;6.50;1.52;;;6.80;99.90;;;;;;5077008;28;20347;-74
2022/02/24 06:14:32;;;;;;;7.88;2.13;;;6.70;99.90;;;;;;5077390;28;20025;-74
2022/02/24 06:17:00;;;;;;;5.72;1.88;;;6.70;99.90;;;;;;5077808;28;20070;-73
2022/02/24 06:19:28;;;;;;;4.80;1.40;;;6.80;99.90;;;;;;5077636;28;20095;-73
2022/02/24 06:21:56;;;;;;;8.82;1.70;;;6.70;99.90;;;;;;5078144;28;20305;-74
2022/02/24 06:24:23;;;;;;;6.55;2.03;;;6.80;99.90;;;;;;5077414;28;20052;-73
2022/02/24 06:26:51;;;;;;;4.70;1.83;;;6.70;99.90;;;;;;5059876;28;20029;-73
2022/02/24 06:29:18;;;;;;;6.38;1.55;;;6.70;99.90;;;;;;5078084;28;20024;-73
2022/02/24 06:31:45;;;;;;;7.32;1.58;;;6.80;99.90;;;;;;5077109;28;20021;-74
2022/02/24 06:34:12;;;;;;;3.55;1.60;;;6.80;99.90;;;;;;5076872;28;20024;-74
2022/02/24 06:36:40;;;;;;;9.50;1.80;;;6.80;99.90;;;;;;5058747;28;20050;-74
2022/02/24 06:39:07;;;;;;;5.35;1.48;;;6.80;99.90;;;;;;5076589;28;20029;-74
2022/02/24 06:41:34;;;;;;;7.38;1.88;;;6.80;99.90;;;;;;5076648;28;20435;-74
2022/02/24 06:44:02;;;;;;;6.72;1.65;;;6.80;99.90;;;;;;5076555;28;20035;-74
2022/02/24 06:46:29;;;;;;;6.97;1.63;;;6.90;99.90;;;;;;5076595;28;20025;-74
2022/02/24 06:48:57;;;;;;;6.25;2.30;;;6.90;99.90;;;;;;5076530;28;20029;-74
2022/02/24 06:51:24;;;;;;;6.55;1.77;;;6.90;99.90;;;;;;5077172;28;20051;-73
2022/02/24 06:53:51;;;;;;;5.70;2.38;;;6.90;99.90;;;;;;5077446;28;20462;-73
2022/02/24 06:56:19;;;;;;;7.55;2.38;;;7.00;99.90;;;;;;5077938;28;20032;-72
2022/02/24 06:58:47;;;;;;;6.88;2.17;;;7.00;99.90;;;;;;5077350;28;20017;-73
2022/02/24 07:01:14;;;;;;;6.60;1.98;;;7.00;99.90;;;;;;5077687;28;20082;-73
2022/02/24 07:03:42;;;;;;;12.35;2.22;;;6.90;99.90;;;;;;5077293;28;20039;-77
2022/02/24 07:06:10;;;;;;;6.72;1.90;;;6.90;99.90;;;;;;5077542;28;20107;-72
2022/02/24 07:08:39;;;;;;;7.95;1.60;;;6.90;99.90;;;;;;5076428;28;20050;-72
2022/02/24 07:11:06;;;;;;;4.22;1.52;;;6.90;99.90;;;;;;5076664;28;20021;-73
2022/02/24 07:13:34;;;;;;;6.13;1.90;;;6.80;99.90;;;;;;5076255;28;20123;-72
2022/02/24 07:16:02;;;;;;;5.90;1.85;;;6.80;99.90;;;;;;5076821;28;20023;-74
2022/02/24 07:18:29;;;;;;;9.07;2.00;;;6.80;99.90;;;;;;5058425;28;20024;-73
2022/02/24 07:21:00;;;;;;;7.57;1.98;;;6.70;99.90;;;;;;5058568;28;20040;-72
2022/02/24 07:23:29;;;;;;;6.88;1.95;;;6.70;99.90;;;;;;5075843;28;20143;-73
2022/02/24 07:25:56;;;;;;;8.43;1.90;;;6.70;99.90;;;;;;5076109;28;20418;-73
2022/02/24 07:28:24;;;;;;;9.70;2.30;;;6.70;99.90;;;;;;5076737;28;20032;-73
2022/02/24 07:30:55;;;;;;;5.97;1.83;;;6.70;99.90;;;;;;5078525;28;20340;-73
2022/02/24 07:33:22;;;;;;;6.00;2.03;;;6.70;99.90;;;;;;5080896;28;20020;-73
2022/02/24 07:35:50;;;;;;;6.35;1.88;;;6.70;99.90;;;;;;5081128;28;20025;-72
2022/02/24 07:38:18;;;;;;;8.27;1.88;;;6.70;99.90;;;;;;5081022;28;20024;-69
2022/02/24 07:40:45;;;;;;;6.40;1.80;;;6.70;99.90;;;;;;5063192;28;20056;-69
2022/02/24 07:43:13;;;;;;;6.88;1.80;;;6.70;99.90;;;;;;5063352;28;20029;-69
2022/02/24 07:45:41;;;;;;;10.82;2.22;;;6.70;99.90;;;;;;5080568;28;20028;-72
2022/02/24 07:48:09;;;;;;;6.95;1.88;;;6.70;99.90;;;;;;5079579;28;20316;-72
2022/02/24 07:50:36;;;;;;;5.00;1.75;;;6.70;99.90;;;;;;5079928;28;20031;-71
2022/02/24 07:53:03;;;;;;;5.45;1.95;;;6.80;99.90;;;;;;5079538;28;20048;-70
2022/02/24 07:55:31;;;;;;;10.73;1.85;;;6.80;99.90;;;;;;5062467;28;20025;-70
2022/02/24 07:57:59;;;;;;;5.85;1.55;;;6.90;99.90;;;;;;5045267;28;20027;-68
2022/02/24 08:00:26;;;;;;;7.10;1.83;;;6.90;99.90;;;;;;5061845;28;20107;-70
2022/02/24 08:02:55;;;;;;;5.60;1.30;;;7.00;99.90;;;;;;5079613;28;20031;-71
2022/02/24 08:05:23;;;;;;;4.85;1.60;;;7.10;99.90;;;;;;5080056;28;20028;-82
2022/02/24 08:07:50;;;;;;;9.88;1.85;;;7.10;99.90;;;;;;5080102;28;20023;-71
2022/02/24 08:10:21;;;;;;;5.40;1.52;;;7.20;99.90;;;;;;5080168;28;20016;-71
2022/02/24 08:12:49;;;;;;;10.23;1.65;;;7.20;99.90;;;;;;5062309;28;20416;-71
2022/02/24 08:15:19;;;;;;;4.55;2.20;;;7.30;99.90;;;;;;5080045;28;20025;-71
2022/02/24 08:17:47;;;;;;;4.70;1.50;;;7.40;99.90;;;;;;5080020;28;20020;-73
2022/02/24 08:20:15;;;;;;;6.65;1.98;;;7.40;99.90;;;;;;5080008;28;20320;-72
2022/02/24 08:22:44;;;;;;;5.13;1.90;;;7.50;99.90;;;;;;5079421;28;20036;-72
2022/02/24 08:25:14;;;;;;;5.05;1.40;;;7.50;99.90;;;;;;5079217;28;20481;-72
2022/02/24 08:27:44;;;;;;;5.82;1.23;;;7.60;99.90;;;;;;5079475;28;20052;-73
2022/02/24 08:30:17;;;;;;;7.40;1.40;;;7.60;99.90;;;;;;5079654;28;20036;-71
2022/02/24 08:32:45;;;;;;;6.85;2.17;;;7.70;99.90;;;;;;5079103;28;20050;-71
2022/02/24 08:35:13;;;;;;;6.32;1.48;;;7.80;99.90;;;;;;5061058;28;20021;-71
2022/02/24 08:37:44;;;;;;;7.07;2.30;;;7.90;99.90;;;;;;5078719;28;20138;-70
2022/02/24 08:40:12;;;;;;;6.63;1.90;;;8.00;99.90;;;;;;5078683;28;20059;-71
2022/02/24 08:42:39;;;;;;;13.55;3.13;;;8.10;99.90;;;;;;5078066;28;20442;-71
2022/02/24 08:45:07;;;;;;;3.50;1.25;;;8.10;99.90;;;;;;5080094;28;20027;-71
2022/02/24 08:47:35;;;;;;;8.77;1.77;;;8.20;99.90;;;;;;5080112;28;20028;-71
2022/02/24 08:50:04;;;;;;;11.70;1.45;;;8.30;99.90;;;;;;5079985;28;20052;-71
2022/02/24 08:52:31;;;;;;;10.25;1.50;;;8.30;99.90;;;;;;5079372;28;20032;-71
2022/02/24 08:54:58;;;;;;;5.68;1.70;;;8.40;99.90;;;;;;5062110;28;20376;-71
2022/02/24 08:57:26;;;;;;;4.30;1.83;;;8.50;99.90;;;;;;5062281;28;20021;-71
2022/02/24 08:59:53;;;;;;;5.63;1.73;;;8.50;99.90;;;;;;5078978;28;20024;-71
2022/02/24 09:02:21;;;;;;;9.13;1.60;;;8.60;99.90;;;;;;5078691;28;20412;-71
2022/02/24 09:04:49;;;;;;;4.25;1.55;;;8.70;99.90;;;;;;5078788;28;20028;-71
2022/02/24 09:07:16;;;;;;;6.85;1.98;;;8.80;99.90;;;;;;5078795;28;20411;-71
2022/02/24 09:09:43;;;;;;;5.70;1.42;;;8.90;99.90;;;;;;5078420;28;20475;-71
2022/02/24 09:12:10;;;;;;;5.18;1.40;;;8.90;99.90;;;;;;5060475;28;20025;-71
2022/02/24 09:14:38;;;;;;;7.28;1.88;;;9.00;99.90;;;;;;5077978;28;20086;-71
2022/02/24 09:17:05;;;;;;;8.30;1.58;;;9.10;99.90;;;;;;5078024;28;20055;-71
2022/02/24 09:19:33;;;;;;;4.40;1.08;;;9.20;99.90;;;;;;5061026;28;20388;-69
2022/02/24 09:22:00;;;;;;;3.97;1.25;;;9.20;99.90;;;;;;5079384;28;20359;-69
2022/02/24 09:24:28;;;;;;;4.28;1.02;;;9.30;99.90;;;;;;5078657;28;20079;-67
2022/02/24 09:26:56;;;;;;;3.35;1.10;;;9.30;99.90;;;;;;5078790;28;20024;-69
2022/02/24 09:29:23;;;;;;;4.68;1.75;;;9.30;99.90;;;;;;5078692;28;20036;-70
2022/02/24 09:31:51;;;;;;;3.30;1.05;;;9.40;99.90;;;;;;5078500;28;20147;-69
2022/02/24 09:34:18;;;;;;;4.50;1.65;;;9.40;99.90;;;;;;5060875;28;20055;-69
2022/02/24 09:36:47;;;;;;;6.60;1.15;;;9.40;99.90;;;;;;5060721;28;20035;-70
2022/02/24 09:39:15;;;;;;;5.10;1.30;;;9.50;99.90;;;;;;5077442;28;20413;-71
2022/02/24 09:41:44;;;;;;;2.38;0.80;;;9.50;99.90;;;;;;5077531;28;20032;-71
2022/02/24 09:44:12;;;;;;;6.57;1.20;;;9.50;99.90;;;;;;5077682;28;20024;-70
2022/02/24 09:46:41;;;;;;;3.50;1.05;;;9.50;99.90;;;;;;5077486;28;20123;-70
2022/02/24 09:49:10;;;;;;;4.03;1.50;;;9.50;99.90;;;;;;5077256;28;20052;-70
2022/02/24 09:51:43;;;;;;;3.17;1.33;;;9.60;99.90;;;;;;5077336;28;20024;-70
2022/02/24 09:54:12;;;;;;;4.43;1.42;;;9.60;99.90;;;;;;5078515;28;20021;-71
2022/02/24 09:56:42;;;;;;;3.33;0.98;;;9.60;99.90;;;;;;5078629;28;20020;-69
2022/02/24 09:59:12;;;;;;;3.90;1.10;;;9.70;99.90;;;;;;5078054;28;20027;-70
2022/02/24 10:01:45;;;;;;;1.98;0.90;;;9.70;99.90;;;;;;5077902;28;20028;-70
2022/02/24 10:04:13;;;;;;;5.95;1.73;;;9.70;99.90;;;;;;5078227;28;20113;-70
2022/02/24 10:06:43;;;;;;;9.13;1.50;;;9.70;99.90;;;;;;5078091;28;20023;-70
2022/02/24 10:09:11;;;;;;;5.22;0.85;;;9.70;99.90;;;;;;5077822;28;20374;-70
2022/02/24 10:11:39;;;;;;;3.40;1.60;;;9.70;99.90;;;;;;5076857;28;20024;-70
2022/02/24 10:14:20;;;;;;;3.78;1.20;;;9.80;99.90;;;;;;5076805;28;20035;-70
2022/02/24 10:16:53;;;;;;;10.50;1.38;;;9.80;99.90;;;;;;5077388;28;20416;-70
2022/02/24 10:19:39;;;;;;;3.10;0.95;;;9.90;99.90;;;;;;5076800;28;20032;-70
2022/02/24 10:22:29;;;;;;;5.55;1.48;;;10.00;99.90;;;;;;5076954;28;20078;-70
2022/02/24 10:25:05;;;;;;;3.22;0.90;;;10.10;99.90;;;;;;5056571;28;20119;-70
2022/02/24 10:27:42;;;;;;;2.87;1.83;;;10.10;99.90;;;;;;5057284;28;20105;-70
2022/02/24 10:30:16;;;;;;;2.38;1.20;;;10.20;99.90;;;;;;5057602;28;20048;-70
2022/02/24 10:32:52;;;;;;;6.28;1.13;;;10.20;99.90;;;;;;5057523;28;20079;-70
2022/02/24 10:35:31;;;;;;;7.90;1.42;;;10.30;99.90;;;;;;5057537;28;20052;-70
2022/02/24 10:38:07;;;;;;;2.80;0.80;;;10.30;99.90;;;;;;5057858;28;20106;-70
2022/02/24 10:40:43;;;;;;;5.03;2.13;;;10.20;99.90;;;;;;5057478;28;20021;-70
2022/02/24 10:43:26;;;;;;;3.47;0.90;;;10.20;99.90;;;;;;5056999;28;20032;-70
2022/02/24 10:46:09;;;;;;;7.95;1.20;;;10.20;99.90;;;;;;5056461;28;20028;-70
2022/02/24 10:49:00;;;;;;;4.88;1.00;;;10.20;99.90;;;;;;5057008;28;20014;-68
2022/02/24 10:51:33;;;;;;;2.22;0.60;;;10.20;99.90;;;;;;5056775;28;20103;-70
2022/02/24 10:54:12;;;;;;;7.90;0.80;;;10.20;99.90;;;;;;5056360;28;20025;-72
2022/02/24 10:56:42;;;;;;;2.90;0.55;;;10.20;99.90;;;;;;5057120;28;20163;-71
2022/02/24 10:59:16;;;;;;;2.58;0.70;;;10.20;99.90;;;;;;5056325;28;20103;-72
2022/02/24 11:01:45;;;;;;;4.93;0.90;;;10.30;99.90;;;;;;5057071;28;20439;-80
2022/02/24 11:04:14;;;;;;;8.05;0.80;;;10.40;99.90;;;;;;5057241;28;20302;-74
2022/02/24 11:06:41;;;;;;;3.33;1.15;;;10.40;99.90;;;;;;5060530;28;20025;-73
2022/02/24 11:09:08;;;;;;;3.10;0.80;;;10.50;99.90;;;;;;5061838;28;20021;-80
2022/02/24 11:11:40;;;;;;;1.85;0.80;;;10.50;99.90;;;;;;5061939;28;20047;-70
2022/02/24 11:14:10;;;;;;;5.80;1.00;;;10.60;99.90;;;;;;5061782;28;20025;-70
2022/02/24 11:16:37;;;;;;;3.58;1.00;;;10.50;99.90;;;;;;5061723;28;20104;-71
2022/02/24 11:19:04;;;;;;;3.15;0.60;;;10.50;99.90;;;;;;5060580;28;20017;-70
2022/02/24 11:21:32;;;;;;;8.52;3.25;;;10.40;99.90;;;;;;5060943;28;20028;-69
2022/02/24 11:23:59;;;;;;;4.07;1.20;;;10.40;99.90;;;;;;5073349;28;20049;-69
2022/02/24 11:26:47;;;;;;;6.28;2.30;;;10.30;99.90;;;;;;5062420;28;20025;-69
2022/02/24 11:29:40;;;;;;;8.32;2.13;;;10.30;99.90;;;;;;5080571;28;20024;-69
2022/02/24 11:32:12;;;;;;;3.90;1.23;;;10.20;99.90;;;;;;5080249;28;20052;-69
2022/02/24 11:34:57;;;;;;;8.68;1.80;;;10.20;99.90;;;;;;5079971;28;20017;-70
2022/02/24 11:37:34;;;;;;;7.07;2.83;;;10.20;99.90;;;;;;5080508;28;20312;-69
2022/02/24 11:40:09;;;;;;;12.00;3.63;;;10.40;99.90;;;;;;5080763;28;20101;-68
2022/02/24 11:42:40;;;;;;;3.05;1.10;;;10.70;99.90;;;;;;5080763;28;20031;-73
2022/02/24 11:45:25;;;;;;;2.97;0.80;;;10.90;99.90;;;;;;5080522;28;20353;-72
2022/02/24 11:48:17;;;;;;;3.60;0.82;;;10.90;99.90;;;;;;5080555;28;20135;-73
2022/02/24 11:51:07;;;;;;;3.50;1.10;;;11.00;99.90;;;;;;5081066;28;20020;-73
2022/02/24 11:53:40;;;;;;;4.28;0.75;;;11.00;99.90;;;;;;5080312;28;20032;-73
2022/02/24 11:56:18;;;;;;;3.92;0.82;;;11.00;99.90;;;;;;5079552;28;20024;-73
2022/02/24 11:59:00;;;;;;;5.03;1.58;;;10.90;99.90;;;;;;5080269;28;20028;-73
2022/02/24 12:01:32;;;;;;;3.08;1.10;;;10.90;99.90;;;;;;5079566;28;20082;-72
2022/02/24 12:04:30;;;;;;;4.00;0.95;;;10.90;99.90;;;;;;5079394;28;20028;-72
2022/02/24 12:07:19;;;;;;;2.08;0.93;;;10.90;99.90;;;;;;5076932;28;20062;-72
2022/02/24 12:10:11;;;;;;;4.82;1.85;;;10.90;99.90;;;;;;5079540;28;20103;-73
2022/02/24 12:12:39;;;;;;;6.18;1.30;;;10.90;99.90;;;;;;5080838;28;20024;-70
2022/02/24 12:15:19;;;;;;;6.00;1.95;;;10.90;99.90;;;;;;5080666;28;20020;-70
2022/02/24 12:17:51;;;;;;;4.50;1.20;;;11.00;99.90;;;;;;5062727;28;20013;-70
2022/02/24 12:20:25;;;;;;;6.43;1.73;;;11.10;99.90;;;;;;5080459;28;20316;-70
2022/02/24 12:22:53;;;;;;;4.75;1.75;;;11.20;99.90;;;;;;5079839;28;20106;-70
2022/02/24 12:25:29;;;;;;;4.80;1.38;;;11.30;99.90;;;;;;5080520;28;20024;-70
2022/02/24 12:28:07;;;;;;;4.93;1.35;;;11.50;99.90;;;;;;5061611;28;20481;-70
2022/02/24 12:30:43;;;;;;;8.13;2.58;;;11.60;99.90;;;;;;5079321;28;20086;-70
2022/02/24 12:33:16;;;;;;;4.88;1.02;;;11.60;99.90;;;;;;5078824;28;20428;-71
2022/02/24 12:35:55;;;;;;;5.75;1.73;;;11.50;99.90;;;;;;5079040;28;20078;-71
2022/02/24 12:38:23;;;;;;;6.90;1.50;;;11.50;99.90;;;;;;5079320;28;20400;-71
2022/02/24 12:40:56;;;;;;;12.35;4.03;;;11.40;99.90;;;;;;5061089;28;20029;-71
2022/02/24 12:43:29;;;;;;;8.02;3.00;;;11.30;99.90;;;;;;5078648;28;20431;-71
2022/02/24 12:45:57;;;;;;;6.90;1.48;;;11.30;99.90;;;;;;5060879;28;20021;-71
2022/02/24 12:48:24;;;;;;;5.25;1.27;;;11.30;99.90;;;;;;5079706;28;20031;-70
2022/02/24 12:50:54;;;;;;;6.90;2.28;;;11.40;99.90;;;;;;5079640;28;20121;-70
2022/02/24 12:53:23;;;;;;;3.75;1.27;;;11.50;99.90;;;;;;5079412;28;20052;-71
2022/02/24 12:56:00;;;;;;;3.63;1.20;;;11.50;99.90;;;;;;5079448;28;20427;-71
2022/02/24 12:58:28;;;;;;;6.65;1.90;;;11.40;99.90;;;;;;5079938;28;20408;-71
2022/02/24 13:00:58;;;;;;;5.20;1.58;;;11.30;99.90;;;;;;5079588;28;20020;-71
2022/02/24 13:03:27;;;;;;;3.42;1.05;;;11.10;99.90;;;;;;5079082;28;20451;-71
2022/02/24 13:05:57;;;;;;;3.58;1.27;;;11.00;99.90;;;;;;5078853;28;20025;-71